sensor_id;sensor_type;location;lat;lon;timestamp;temperature;humidity
37594;DHT22;23441;50.856;6.076;2023-06-22T00:01:49;20.00;99.90
37594;DHT22;23441;50.856;6.076;2023-06-22T00:04:14;19.90;99.90
37594;DHT22;23441;50.856;6.076;2023-06-22T00:06:40;19.90;99.90
37594;DHT22;23441;50.856;6.076;2023-06-22T00:09:06;19.90;99.90
37594;DHT22;23441;50.856;6.076;2023-06-22T00:11:36;19.80;99.90
37594;DHT22;23441;50.856;6.076;2023-06-22T00:14:02;19.80;99.90
37594;DHT22;23441;50.856;6.076;2023-06-22T00:16:27;19.70;99.90
37594;DHT22;23441;50.856;6.076;2023-06-22T00:18:53;19.70;99.90
37594;DHT22;23441;50.856;6.076;2023-06-22T00:21:19;19.70;99.90
37594;DHT22;23441;50.856;6.076;2023-06-22T00:23:46;19.70;99.90
37594;DHT22;23441;50.856;6.076;2023-06-22T00:26:12;19.70;99.90
37594;DHT22;23441;50.856;6.076;2023-06-22T00:28:38;19.70;99.90
37594;DHT22;23441;50.856;6.076;2023-06-22T00:31:04;19.70;99.90
37594;DHT22;23441;50.856;6.076;2023-06-22T00:33:30;19.70;99.90
37594;DHT22;23441;50.856;6.076;2023-06-22T00:35:55;19.70;99.90
37594;DHT22;23441;50.856;6.076;2023-06-22T00:38:21;19.70;99.90
37594;DHT22;23441;50.856;6.076;2023-06-22T00:40:46;19.80;99.90
37594;DHT22;23441;50.856;6.076;2023-06-22T00:43:12;19.80;99.90
37594;DHT22;23441;50.856;6.076;2023-06-22T01:02:15;19.80;99.90
37594;DHT22;23441;50.856;6.076;2023-06-22T01:04:40;19.80;99.90
37594;DHT22;23441;50.856;6.076;2023-06-22T01:10:04;19.70;99.90
37594;DHT22;23441;50.856;6.076;2023-06-22T01:12:37;19.70;99.90
37594;DHT22;23441;50.856;6.076;2023-06-22T01:15:21;19.70;99.90
37594;DHT22;23441;50.856;6.076;2023-06-22T01:17:49;19.60;99.90
37594;DHT22;23441;50.856;6.076;2023-06-22T01:20:17;19.60;99.90
37594;DHT22;23441;50.856;6.076;2023-06-22T01:25:31;19.60;99.90
37594;DHT22;23441;50.856;6.076;2023-06-22T01:30:41;19.60;99.90
37594;DHT22;23441;50.856;6.076;2023-06-22T01:33:11;19.60;99.90
37594;DHT22;23441;50.856;6.076;2023-06-22T01:35:38;19.60;99.90
37594;DHT22;23441;50.856;6.076;2023-06-22T01:38:04;19.60;99.90
37594;DHT22;23441;50.856;6.076;2023-06-22T01:40:32;19.60;99.90
37594;DHT22;23441;50.856;6.076;2023-06-22T01:43:00;19.60;99.90
37594;DHT22;23441;50.856;6.076;2023-06-22T01:45:27;19.70;99.90
37594;DHT22;23441;50.856;6.076;2023-06-22T01:47:53;19.70;99.90
37594;DHT22;23441;50.856;6.076;2023-06-22T01:50:19;19.70;99.90
37594;DHT22;23441;50.856;6.076;2023-06-22T01:52:45;19.70;99.90
37594;DHT22;23441;50.856;6.076;2023-06-22T01:55:11;19.70;99.90
37594;DHT22;23441;50.856;6.076;2023-06-22T01:57:37;19.70;99.90
37594;DHT22;23441;50.856;6.076;2023-06-22T02:00:18;19.70;99.90
37594;DHT22;23441;50.856;6.076;2023-06-22T02:02:56;19.70;99.90
37594;DHT22;23441;50.856;6.076;2023-06-22T02:05:26;19.60;99.90
37594;DHT22;23441;50.856;6.076;2023-06-22T02:08:11;19.60;99.90
37594;DHT22;23441;50.856;6.076;2023-06-22T02:10:41;19.60;99.90
37594;DHT22;23441;50.856;6.076;2023-06-22T02:13:09;19.50;99.90
37594;DHT22;23441;50.856;6.076;2023-06-22T02:15:35;19.50;99.90
37594;DHT22;23441;50.856;6.076;2023-06-22T02:18:01;19.60;99.90
37594;DHT22;23441;50.856;6.076;2023-06-22T02:20:27;19.60;99.90
37594;DHT22;23441;50.856;6.076;2023-06-22T02:22:52;19.60;99.90
37594;DHT22;23441;50.856;6.076;2023-06-22T02:25:18;19.50;99.90
37594;DHT22;23441;50.856;6.076;2023-06-22T02:27:45;19.50;99.90
37594;DHT22;23441;50.856;6.076;2023-06-22T02:30:11;19.50;99.90
37594;DHT22;23441;50.856;6.076;2023-06-22T02:32:37;19.40;99.90
37594;DHT22;23441;50.856;6.076;2023-06-22T02:35:03;19.40;99.90
37594;DHT22;23441;50.856;6.076;2023-06-22T02:37:32;19.40;99.90
37594;DHT22;23441;50.856;6.076;2023-06-22T02:39:57;19.40;99.90
37594;DHT22;23441;50.856;6.076;2023-06-22T02:42:23;19.40;99.90
37594;DHT22;23441;50.856;6.076;2023-06-22T02:44:49;19.30;99.90
37594;DHT22;23441;50.856;6.076;2023-06-22T02:47:16;19.30;99.90
37594;DHT22;23441;50.856;6.076;2023-06-22T02:49:42;19.30;99.90
37594;DHT22;23441;50.856;6.076;2023-06-22T02:52:10;19.40;99.90
37594;DHT22;23441;50.856;6.076;2023-06-22T02:54:35;19.40;99.90
37594;DHT22;23441;50.856;6.076;2023-06-22T02:57:01;19.30;99.90
37594;DHT22;23441;50.856;6.076;2023-06-22T02:59:29;19.30;99.90
37594;DHT22;23441;50.856;6.076;2023-06-22T03:01:55;19.30;99.90
37594;DHT22;23441;50.856;6.076;2023-06-22T03:04:21;19.30;99.90
37594;DHT22;23441;50.856;6.076;2023-06-22T03:06:46;19.40;99.90
37594;DHT22;23441;50.856;6.076;2023-06-22T03:09:16;19.40;99.90
37594;DHT22;23441;50.856;6.076;2023-06-22T03:11:42;19.40;99.90
37594;DHT22;23441;50.856;6.076;2023-06-22T03:14:08;19.30;99.90
37594;DHT22;23441;50.856;6.076;2023-06-22T03:16:33;19.30;99.90
37594;DHT22;23441;50.856;6.076;2023-06-22T03:18:59;19.30;99.90
37594;DHT22;23441;50.856;6.076;2023-06-22T03:21:28;19.30;99.90
37594;DHT22;23441;50.856;6.076;2023-06-22T03:23:53;19.30;99.90
37594;DHT22;23441;50.856;6.076;2023-06-22T03:26:19;19.30;99.90
37594;DHT22;23441;50.856;6.076;2023-06-22T03:28:46;19.30;99.90
37594;DHT22;23441;50.856;6.076;2023-06-22T03:31:11;19.30;99.90
37594;DHT22;23441;50.856;6.076;2023-06-22T03:33:37;19.30;99.90
37594;DHT22;23441;50.856;6.076;2023-06-22T03:36:03;19.30;99.90
37594;DHT22;23441;50.856;6.076;2023-06-22T03:38:28;19.30;99.90
37594;DHT22;23441;50.856;6.076;2023-06-22T03:40:54;19.40;99.90
37594;DHT22;23441;50.856;6.076;2023-06-22T03:43:20;19.30;99.90
37594;DHT22;23441;50.856;6.076;2023-06-22T03:45:45;19.30;99.90
37594;DHT22;23441;50.856;6.076;2023-06-22T03:48:12;19.40;99.90
37594;DHT22;23441;50.856;6.076;2023-06-22T03:50:37;19.40;99.90
37594;DHT22;23441;50.856;6.076;2023-06-22T03:53:03;19.40;99.90
37594;DHT22;23441;50.856;6.076;2023-06-22T03:55:29;19.40;99.90
37594;DHT22;23441;50.856;6.076;2023-06-22T03:57:55;19.40;99.90
37594;DHT22;23441;50.856;6.076;2023-06-22T04:00:23;19.40;99.90
37594;DHT22;23441;50.856;6.076;2023-06-22T04:02:48;19.40;99.90
37594;DHT22;23441;50.856;6.076;2023-06-22T04:05:14;19.40;99.90
37594;DHT22;23441;50.856;6.076;2023-06-22T04:07:40;19.40;99.90
37594;DHT22;23441;50.856;6.076;2023-06-22T04:10:06;19.40;99.90
37594;DHT22;23441;50.856;6.076;2023-06-22T04:12:32;19.40;99.90
37594;DHT22;23441;50.856;6.076;2023-06-22T04:14:57;19.40;99.90
37594;DHT22;23441;50.856;6.076;2023-06-22T04:17:23;19.40;99.90
37594;DHT22;23441;50.856;6.076;2023-06-22T04:19:51;19.50;99.90
37594;DHT22;23441;50.856;6.076;2023-06-22T04:22:16;19.50;99.90
37594;DHT22;23441;50.856;6.076;2023-06-22T04:24:42;19.50;99.90
37594;DHT22;23441;50.856;6.076;2023-06-22T04:27:07;19.50;99.90
37594;DHT22;23441;50.856;6.076;2023-06-22T04:29:33;19.50;99.90
37594;DHT22;23441;50.856;6.076;2023-06-22T04:31:59;19.60;99.90
37594;DHT22;23441;50.856;6.076;2023-06-22T04:34:29;19.60;99.90
37594;DHT22;23441;50.856;6.076;2023-06-22T04:36:55;19.60;99.90
37594;DHT22;23441;50.856;6.076;2023-06-22T04:39:21;19.70;99.90
37594;DHT22;23441;50.856;6.076;2023-06-22T04:41:47;19.70;99.90
37594;DHT22;23441;50.856;6.076;2023-06-22T04:44:17;19.80;99.90
37594;DHT22;23441;50.856;6.076;2023-06-22T04:46:54;19.80;99.90
37594;DHT22;23441;50.856;6.076;2023-06-22T04:49:25;19.90;99.90
37594;DHT22;23441;50.856;6.076;2023-06-22T04:51:58;20.00;99.90
37594;DHT22;23441;50.856;6.076;2023-06-22T04:54:23;19.90;99.90
37594;DHT22;23441;50.856;6.076;2023-06-22T04:56:49;20.00;99.90
37594;DHT22;23441;50.856;6.076;2023-06-22T04:59:22;20.00;99.90
37594;DHT22;23441;50.856;6.076;2023-06-22T05:01:48;20.10;99.90
37594;DHT22;23441;50.856;6.076;2023-06-22T05:04:14;20.10;99.90
37594;DHT22;23441;50.856;6.076;2023-06-22T05:06:39;20.20;99.90
37594;DHT22;23441;50.856;6.076;2023-06-22T05:09:05;20.10;99.90
37594;DHT22;23441;50.856;6.076;2023-06-22T05:11:30;20.10;99.90
37594;DHT22;23441;50.856;6.076;2023-06-22T05:13:56;20.20;99.90
37594;DHT22;23441;50.856;6.076;2023-06-22T05:16:22;20.30;99.90
37594;DHT22;23441;50.856;6.076;2023-06-22T05:18:55;20.20;99.90
37594;DHT22;23441;50.856;6.076;2023-06-22T05:21:26;20.20;99.90
37594;DHT22;23441;50.856;6.076;2023-06-22T05:23:53;20.20;99.90
37594;DHT22;23441;50.856;6.076;2023-06-22T05:26:19;20.20;99.90
37594;DHT22;23441;50.856;6.076;2023-06-22T05:28:45;20.20;99.90
37594;DHT22;23441;50.856;6.076;2023-06-22T05:31:13;20.20;99.90
37594;DHT22;23441;50.856;6.076;2023-06-22T05:33:39;20.20;99.90
37594;DHT22;23441;50.856;6.076;2023-06-22T05:36:05;20.20;99.90
37594;DHT22;23441;50.856;6.076;2023-06-22T05:38:30;20.20;99.90
37594;DHT22;23441;50.856;6.076;2023-06-22T05:40:56;20.30;99.90
37594;DHT22;23441;50.856;6.076;2023-06-22T05:43:22;20.30;99.90
37594;DHT22;23441;50.856;6.076;2023-06-22T05:45:48;20.30;99.90
37594;DHT22;23441;50.856;6.076;2023-06-22T05:48:13;20.30;99.90
37594;DHT22;23441;50.856;6.076;2023-06-22T05:50:39;20.40;99.90
37594;DHT22;23441;50.856;6.076;2023-06-22T05:53:05;20.40;99.90
37594;DHT22;23441;50.856;6.076;2023-06-22T05:55:32;20.50;99.90
37594;DHT22;23441;50.856;6.076;2023-06-22T05:57:58;20.50;99.90
37594;DHT22;23441;50.856;6.076;2023-06-22T06:00:23;20.60;99.90
37594;DHT22;23441;50.856;6.076;2023-06-22T06:02:49;20.60;99.90
37594;DHT22;23441;50.856;6.076;2023-06-22T06:05:15;20.60;99.90
37594;DHT22;23441;50.856;6.076;2023-06-22T06:07:42;20.60;99.90
37594;DHT22;23441;50.856;6.076;2023-06-22T06:10:08;20.70;99.90
37594;DHT22;23441;50.856;6.076;2023-06-22T06:12:34;20.70;99.90
37594;DHT22;23441;50.856;6.076;2023-06-22T06:15:00;20.80;99.90
37594;DHT22;23441;50.856;6.076;2023-06-22T06:17:26;20.70;99.90
37594;DHT22;23441;50.856;6.076;2023-06-22T06:19:52;20.60;99.90
37594;DHT22;23441;50.856;6.076;2023-06-22T06:22:18;20.70;99.90
37594;DHT22;23441;50.856;6.076;2023-06-22T06:24:45;20.80;99.90
37594;DHT22;23441;50.856;6.076;2023-06-22T06:27:11;20.90;99.90
37594;DHT22;23441;50.856;6.076;2023-06-22T06:29:36;20.80;99.90
37594;DHT22;23441;50.856;6.076;2023-06-22T06:32:02;20.90;99.90
37594;DHT22;23441;50.856;6.076;2023-06-22T06:34:28;20.90;99.90
37594;DHT22;23441;50.856;6.076;2023-06-22T06:36:53;21.00;99.90
37594;DHT22;23441;50.856;6.076;2023-06-22T06:39:19;21.10;99.90
37594;DHT22;23441;50.856;6.076;2023-06-22T06:41:45;21.20;99.90
37594;DHT22;23441;50.856;6.076;2023-06-22T06:44:11;21.30;99.90
37594;DHT22;23441;50.856;6.076;2023-06-22T06:46:37;21.40;99.90
37594;DHT22;23441;50.856;6.076;2023-06-22T06:49:03;21.40;99.90
37594;DHT22;23441;50.856;6.076;2023-06-22T06:51:29;21.50;99.90
37594;DHT22;23441;50.856;6.076;2023-06-22T06:53:54;21.60;99.90
37594;DHT22;23441;50.856;6.076;2023-06-22T06:56:20;21.90;99.90
37594;DHT22;23441;50.856;6.076;2023-06-22T06:58:46;22.00;99.90
37594;DHT22;23441;50.856;6.076;2023-06-22T07:01:12;22.40;99.90
37594;DHT22;23441;50.856;6.076;2023-06-22T07:03:38;22.90;99.90
37594;DHT22;23441;50.856;6.076;2023-06-22T07:06:04;23.60;99.90
37594;DHT22;23441;50.856;6.076;2023-06-22T07:08:30;24.20;99.90
37594;DHT22;23441;50.856;6.076;2023-06-22T07:10:55;24.60;99.90
37594;DHT22;23441;50.856;6.076;2023-06-22T07:13:21;24.70;99.90
37594;DHT22;23441;50.856;6.076;2023-06-22T07:15:47;25.20;99.90
37594;DHT22;23441;50.856;6.076;2023-06-22T07:18:12;25.40;99.90
37594;DHT22;23441;50.856;6.076;2023-06-22T07:20:38;25.70;99.90
37594;DHT22;23441;50.856;6.076;2023-06-22T07:23:05;26.60;99.90
37594;DHT22;23441;50.856;6.076;2023-06-22T07:25:30;28.20;99.90
37594;DHT22;23441;50.856;6.076;2023-06-22T07:28:04;28.60;98.10
37594;DHT22;23441;50.856;6.076;2023-06-22T07:30:31;28.30;96.50
37594;DHT22;23441;50.856;6.076;2023-06-22T07:32:57;28.00;97.70
37594;DHT22;23441;50.856;6.076;2023-06-22T07:35:24;27.50;97.30
37594;DHT22;23441;50.856;6.076;2023-06-22T07:37:50;26.80;97.30
37594;DHT22;23441;50.856;6.076;2023-06-22T07:40:16;26.10;98.30
37594;DHT22;23441;50.856;6.076;2023-06-22T07:42:41;25.80;99.90
37594;DHT22;23441;50.856;6.076;2023-06-22T07:45:07;25.90;99.90
37594;DHT22;23441;50.856;6.076;2023-06-22T07:47:34;26.20;99.90
37594;DHT22;23441;50.856;6.076;2023-06-22T07:50:01;26.70;99.90
37594;DHT22;23441;50.856;6.076;2023-06-22T07:52:30;26.70;98.90
37594;DHT22;23441;50.856;6.076;2023-06-22T07:54:55;26.70;99.50
37594;DHT22;23441;50.856;6.076;2023-06-22T07:57:21;27.10;98.40
37594;DHT22;23441;50.856;6.076;2023-06-22T07:59:47;28.30;98.80
37594;DHT22;23441;50.856;6.076;2023-06-22T08:02:13;29.10;97.00
37594;DHT22;23441;50.856;6.076;2023-06-22T08:04:39;29.80;96.30
37594;DHT22;23441;50.856;6.076;2023-06-22T08:07:05;30.40;95.30
37594;DHT22;23441;50.856;6.076;2023-06-22T08:09:32;30.60;94.30
37594;DHT22;23441;50.856;6.076;2023-06-22T08:11:58;30.50;95.20
37594;DHT22;23441;50.856;6.076;2023-06-22T08:14:29;30.30;92.90
37594;DHT22;23441;50.856;6.076;2023-06-22T08:16:55;29.50;94.20
37594;DHT22;23441;50.856;6.076;2023-06-22T08:19:20;29.20;94.40
37594;DHT22;23441;50.856;6.076;2023-06-22T08:21:46;28.40;96.00
37594;DHT22;23441;50.856;6.076;2023-06-22T08:24:12;27.90;96.30
37594;DHT22;23441;50.856;6.076;2023-06-22T08:26:38;27.90;96.40
37594;DHT22;23441;50.856;6.076;2023-06-22T08:29:04;28.20;95.90
37594;DHT22;23441;50.856;6.076;2023-06-22T08:31:31;27.80;96.60
37594;DHT22;23441;50.856;6.076;2023-06-22T08:33:58;27.90;97.00
37594;DHT22;23441;50.856;6.076;2023-06-22T08:36:24;28.10;96.70
37594;DHT22;23441;50.856;6.076;2023-06-22T08:38:50;27.70;97.20
37594;DHT22;23441;50.856;6.076;2023-06-22T08:41:17;27.60;97.80
37594;DHT22;23441;50.856;6.076;2023-06-22T08:43:43;28.20;97.50
37594;DHT22;23441;50.856;6.076;2023-06-22T08:46:10;28.70;97.70
37594;DHT22;23441;50.856;6.076;2023-06-22T08:48:36;29.30;96.00
37594;DHT22;23441;50.856;6.076;2023-06-22T08:51:02;29.50;94.90
37594;DHT22;23441;50.856;6.076;2023-06-22T08:53:28;29.50;95.00
37594;DHT22;23441;50.856;6.076;2023-06-22T08:55:54;29.80;94.90
37594;DHT22;23441;50.856;6.076;2023-06-22T08:58:20;30.00;95.70
37594;DHT22;23441;50.856;6.076;2023-06-22T09:00:47;30.40;95.60
37594;DHT22;23441;50.856;6.076;2023-06-22T09:03:13;29.90;94.90
37594;DHT22;23441;50.856;6.076;2023-06-22T09:05:38;30.30;94.80
37594;DHT22;23441;50.856;6.076;2023-06-22T09:08:04;30.30;94.20
37594;DHT22;23441;50.856;6.076;2023-06-22T09:10:30;29.90;95.90
37594;DHT22;23441;50.856;6.076;2023-06-22T09:12:57;29.40;95.10
37594;DHT22;23441;50.856;6.076;2023-06-22T09:15:22;28.90;95.90
37594;DHT22;23441;50.856;6.076;2023-06-22T09:17:48;28.00;96.50
37594;DHT22;23441;50.856;6.076;2023-06-22T09:20:14;27.30;97.20
37594;DHT22;23441;50.856;6.076;2023-06-22T09:22:41;27.00;98.70
37594;DHT22;23441;50.856;6.076;2023-06-22T09:25:07;26.90;98.90
37594;DHT22;23441;50.856;6.076;2023-06-22T09:27:33;26.70;99.20
37594;DHT22;23441;50.856;6.076;2023-06-22T09:29:58;26.70;99.90
37594;DHT22;23441;50.856;6.076;2023-06-22T09:32:25;26.80;99.90
37594;DHT22;23441;50.856;6.076;2023-06-22T09:34:51;26.30;99.80
37594;DHT22;23441;50.856;6.076;2023-06-22T09:37:17;26.20;99.90
37594;DHT22;23441;50.856;6.076;2023-06-22T09:39:42;26.10;99.90
37594;DHT22;23441;50.856;6.076;2023-06-22T09:42:08;25.90;99.90
37594;DHT22;23441;50.856;6.076;2023-06-22T09:44:34;25.70;99.90
37594;DHT22;23441;50.856;6.076;2023-06-22T09:47:00;25.50;99.90
37594;DHT22;23441;50.856;6.076;2023-06-22T09:49:25;25.20;99.90
37594;DHT22;23441;50.856;6.076;2023-06-22T09:51:51;25.10;99.90
37594;DHT22;23441;50.856;6.076;2023-06-22T09:54:18;25.00;99.90
37594;DHT22;23441;50.856;6.076;2023-06-22T09:56:43;24.90;99.90
37594;DHT22;23441;50.856;6.076;2023-06-22T09:59:09;24.80;99.90
37594;DHT22;23441;50.856;6.076;2023-06-22T10:01:35;24.80;99.90
37594;DHT22;23441;50.856;6.076;2023-06-22T10:04:02;24.80;99.90
37594;DHT22;23441;50.856;6.076;2023-06-22T10:06:28;24.90;99.90
37594;DHT22;23441;50.856;6.076;2023-06-22T10:08:53;24.80;99.90
37594;DHT22;23441;50.856;6.076;2023-06-22T10:11:19;24.50;99.90
37594;DHT22;23441;50.856;6.076;2023-06-22T10:13:45;24.40;99.90
37594;DHT22;23441;50.856;6.076;2023-06-22T10:16:10;24.40;99.90
37594;DHT22;23441;50.856;6.076;2023-06-22T10:18:36;24.40;99.90
37594;DHT22;23441;50.856;6.076;2023-06-22T10:21:02;24.10;99.90
37594;DHT22;23441;50.856;6.076;2023-06-22T10:23:27;24.00;99.90
37594;DHT22;23441;50.856;6.076;2023-06-22T10:25:53;24.00;99.90
37594;DHT22;23441;50.856;6.076;2023-06-22T10:28:19;23.80;99.90
37594;DHT22;23441;50.856;6.076;2023-06-22T10:30:44;23.60;99.90
37594;DHT22;23441;50.856;6.076;2023-06-22T10:33:11;23.60;99.90
37594;DHT22;23441;50.856;6.076;2023-06-22T10:35:37;23.30;99.90
37594;DHT22;23441;50.856;6.076;2023-06-22T10:38:06;23.30;99.90
37594;DHT22;23441;50.856;6.076;2023-06-22T10:40:32;23.30;99.90
37594;DHT22;23441;50.856;6.076;2023-06-22T10:42:58;23.20;99.90
37594;DHT22;23441;50.856;6.076;2023-06-22T10:45:24;23.00;99.90
37594;DHT22;23441;50.856;6.076;2023-06-22T10:47:49;22.90;99.90
37594;DHT22;23441;50.856;6.076;2023-06-22T10:50:15;22.80;99.90
37594;DHT22;23441;50.856;6.076;2023-06-22T10:52:40;22.90;99.90
37594;DHT22;23441;50.856;6.076;2023-06-22T10:55:09;23.20;99.90
37594;DHT22;23441;50.856;6.076;2023-06-22T10:57:35;23.20;99.90
37594;DHT22;23441;50.856;6.076;2023-06-22T11:00:02;23.40;99.90
37594;DHT22;23441;50.856;6.076;2023-06-22T11:02:31;23.60;99.90
37594;DHT22;23441;50.856;6.076;2023-06-22T11:04:56;23.50;99.90
37594;DHT22;23441;50.856;6.076;2023-06-22T11:07:26;23.80;99.90
37594;DHT22;23441;50.856;6.076;2023-06-22T11:09:53;24.00;99.90
37594;DHT22;23441;50.856;6.076;2023-06-22T11:12:18;24.20;99.90
37594;DHT22;23441;50.856;6.076;2023-06-22T11:14:44;25.00;99.90
37594;DHT22;23441;50.856;6.076;2023-06-22T11:17:09;25.50;99.90
37594;DHT22;23441;50.856;6.076;2023-06-22T11:19:35;25.60;99.90
37594;DHT22;23441;50.856;6.076;2023-06-22T11:22:01;25.70;99.90
37594;DHT22;23441;50.856;6.076;2023-06-22T11:24:27;25.60;99.90
37594;DHT22;23441;50.856;6.076;2023-06-22T11:26:53;25.40;99.90
37594;DHT22;23441;50.856;6.076;2023-06-22T11:29:18;25.50;99.90
37594;DHT22;23441;50.856;6.076;2023-06-22T11:31:44;25.60;99.90
37594;DHT22;23441;50.856;6.076;2023-06-22T11:34:10;25.60;99.90
37594;DHT22;23441;50.856;6.076;2023-06-22T11:36:36;25.90;99.90
37594;DHT22;23441;50.856;6.076;2023-06-22T11:39:02;25.60;99.90
37594;DHT22;23441;50.856;6.076;2023-06-22T11:41:27;25.90;99.90
37594;DHT22;23441;50.856;6.076;2023-06-22T11:43:54;25.90;99.90
37594;DHT22;23441;50.856;6.076;2023-06-22T11:46:20;26.10;99.90
37594;DHT22;23441;50.856;6.076;2023-06-22T11:48:46;26.40;99.90
37594;DHT22;23441;50.856;6.076;2023-06-22T11:51:11;26.40;99.90
37594;DHT22;23441;50.856;6.076;2023-06-22T11:53:37;26.10;99.90
37594;DHT22;23441;50.856;6.076;2023-06-22T11:56:03;25.70;99.90
37594;DHT22;23441;50.856;6.076;2023-06-22T11:58:28;25.30;99.90
37594;DHT22;23441;50.856;6.076;2023-06-22T12:00:54;25.10;99.90
37594;DHT22;23441;50.856;6.076;2023-06-22T12:03:20;25.20;99.90
37594;DHT22;23441;50.856;6.076;2023-06-22T12:05:50;25.30;99.90
37594;DHT22;23441;50.856;6.076;2023-06-22T12:08:17;25.40;99.90
37594;DHT22;23441;50.856;6.076;2023-06-22T12:10:43;25.50;99.90
37594;DHT22;23441;50.856;6.076;2023-06-22T12:13:08;25.50;99.90
37594;DHT22;23441;50.856;6.076;2023-06-22T12:15:34;25.40;99.90
37594;DHT22;23441;50.856;6.076;2023-06-22T12:18:00;25.20;99.90
37594;DHT22;23441;50.856;6.076;2023-06-22T12:20:26;25.30;99.90
37594;DHT22;23441;50.856;6.076;2023-06-22T12:22:52;25.10;99.90
37594;DHT22;23441;50.856;6.076;2023-06-22T12:25:19;25.00;99.90
37594;DHT22;23441;50.856;6.076;2023-06-22T12:27:45;24.90;99.90
37594;DHT22;23441;50.856;6.076;2023-06-22T12:30:10;24.80;99.90
37594;DHT22;23441;50.856;6.076;2023-06-22T12:32:36;25.00;99.90
37594;DHT22;23441;50.856;6.076;2023-06-22T12:35:02;25.20;99.90
37594;DHT22;23441;50.856;6.076;2023-06-22T12:37:28;25.30;99.90
37594;DHT22;23441;50.856;6.076;2023-06-22T12:39:54;25.20;99.90
37594;DHT22;23441;50.856;6.076;2023-06-22T12:42:20;25.10;99.90
37594;DHT22;23441;50.856;6.076;2023-06-22T12:44:46;25.10;99.90
37594;DHT22;23441;50.856;6.076;2023-06-22T12:47:12;25.10;99.90
37594;DHT22;23441;50.856;6.076;2023-06-22T12:49:38;25.10;99.90
37594;DHT22;23441;50.856;6.076;2023-06-22T12:52:09;25.00;99.90
37594;DHT22;23441;50.856;6.076;2023-06-22T12:54:35;25.00;99.90
37594;DHT22;23441;50.856;6.076;2023-06-22T12:57:02;24.80;99.90
37594;DHT22;23441;50.856;6.076;2023-06-22T12:59:27;25.00;99.90
37594;DHT22;23441;50.856;6.076;2023-06-22T13:01:53;25.00;99.90
37594;DHT22;23441;50.856;6.076;2023-06-22T13:04:18;24.60;99.90
37594;DHT22;23441;50.856;6.076;2023-06-22T13:06:45;24.40;99.90
37594;DHT22;23441;50.856;6.076;2023-06-22T13:09:15;24.10;99.90
37594;DHT22;23441;50.856;6.076;2023-06-22T13:11:42;24.00;99.90
37594;DHT22;23441;50.856;6.076;2023-06-22T13:14:08;23.90;99.90
37594;DHT22;23441;50.856;6.076;2023-06-22T13:16:33;23.90;99.90
37594;DHT22;23441;50.856;6.076;2023-06-22T13:18:59;23.90;99.90
37594;DHT22;23441;50.856;6.076;2023-06-22T13:21:24;23.70;99.90
37594;DHT22;23441;50.856;6.076;2023-06-22T13:23:50;23.40;99.90
37594;DHT22;23441;50.856;6.076;2023-06-22T13:26:16;23.40;99.90
37594;DHT22;23441;50.856;6.076;2023-06-22T13:28:42;23.00;99.90
37594;DHT22;23441;50.856;6.076;2023-06-22T13:31:07;22.70;99.90
37594;DHT22;23441;50.856;6.076;2023-06-22T13:33:33;22.70;99.90
37594;DHT22;23441;50.856;6.076;2023-06-22T13:35:58;22.80;99.90
37594;DHT22;23441;50.856;6.076;2023-06-22T13:38:24;22.80;99.90
37594;DHT22;23441;50.856;6.076;2023-06-22T13:40:50;22.80;99.90
37594;DHT22;23441;50.856;6.076;2023-06-22T13:43:16;22.80;99.90
37594;DHT22;23441;50.856;6.076;2023-06-22T13:45:42;22.60;99.90
37594;DHT22;23441;50.856;6.076;2023-06-22T13:48:08;22.50;99.90
37594;DHT22;23441;50.856;6.076;2023-06-22T13:50:34;22.50;99.90
37594;DHT22;23441;50.856;6.076;2023-06-22T13:52:59;22.50;99.90
37594;DHT22;23441;50.856;6.076;2023-06-22T13:55:25;22.40;99.90
37594;DHT22;23441;50.856;6.076;2023-06-22T13:57:52;22.40;99.90
37594;DHT22;23441;50.856;6.076;2023-06-22T14:00:18;22.40;99.90
37594;DHT22;23441;50.856;6.076;2023-06-22T14:02:44;22.30;99.90
37594;DHT22;23441;50.856;6.076;2023-06-22T14:05:10;22.30;99.90
37594;DHT22;23441;50.856;6.076;2023-06-22T14:07:36;22.30;99.90
37594;DHT22;23441;50.856;6.076;2023-06-22T14:10:03;22.20;99.90
37594;DHT22;23441;50.856;6.076;2023-06-22T14:12:29;22.20;99.90
37594;DHT22;23441;50.856;6.076;2023-06-22T14:14:54;22.20;99.90
37594;DHT22;23441;50.856;6.076;2023-06-22T14:17:20;22.00;99.90
37594;DHT22;23441;50.856;6.076;2023-06-22T14:19:49;22.00;99.90
37594;DHT22;23441;50.856;6.076;2023-06-22T14:22:18;21.90;99.90
37594;DHT22;23441;50.856;6.076;2023-06-22T14:24:44;21.90;99.90
37594;DHT22;23441;50.856;6.076;2023-06-22T14:27:09;21.90;99.90
37594;DHT22;23441;50.856;6.076;2023-06-22T14:29:35;21.80;99.90
37594;DHT22;23441;50.856;6.076;2023-06-22T14:32:01;21.70;99.90
37594;DHT22;23441;50.856;6.076;2023-06-22T14:34:26;21.50;99.90
37594;DHT22;23441;50.856;6.076;2023-06-22T14:36:52;21.30;99.90
37594;DHT22;23441;50.856;6.076;2023-06-22T14:39:18;21.20;99.90
37594;DHT22;23441;50.856;6.076;2023-06-22T14:41:43;21.00;99.90
37594;DHT22;23441;50.856;6.076;2023-06-22T14:44:09;21.00;99.90
37594;DHT22;23441;50.856;6.076;2023-06-22T14:46:35;20.90;99.90
37594;DHT22;23441;50.856;6.076;2023-06-22T14:49:00;20.90;99.90
37594;DHT22;23441;50.856;6.076;2023-06-22T14:51:26;20.90;99.90
37594;DHT22;23441;50.856;6.076;2023-06-22T14:53:52;20.90;99.90
37594;DHT22;23441;50.856;6.076;2023-06-22T14:56:18;20.90;99.90
37594;DHT22;23441;50.856;6.076;2023-06-22T14:58:44;20.80;99.90
37594;DHT22;23441;50.856;6.076;2023-06-22T15:01:12;20.70;99.90
37594;DHT22;23441;50.856;6.076;2023-06-22T15:03:38;20.60;99.90
37594;DHT22;23441;50.856;6.076;2023-06-22T15:06:04;20.50;99.90
37594;DHT22;23441;50.856;6.076;2023-06-22T15:08:30;20.40;99.90
37594;DHT22;23441;50.856;6.076;2023-06-22T15:10:59;20.30;99.90
37594;DHT22;23441;50.856;6.076;2023-06-22T15:13:27;20.40;99.90
37594;DHT22;23441;50.856;6.076;2023-06-22T15:15:53;20.30;99.90
37594;DHT22;23441;50.856;6.076;2023-06-22T15:18:18;20.30;99.90
37594;DHT22;23441;50.856;6.076;2023-06-22T15:20:44;20.20;99.90
37594;DHT22;23441;50.856;6.076;2023-06-22T15:23:11;20.00;99.90
37594;DHT22;23441;50.856;6.076;2023-06-22T15:25:37;19.80;99.90
37594;DHT22;23441;50.856;6.076;2023-06-22T15:28:03;19.70;99.90
37594;DHT22;23441;50.856;6.076;2023-06-22T15:30:29;19.60;99.90
37594;DHT22;23441;50.856;6.076;2023-06-22T15:32:56;19.50;99.90
37594;DHT22;23441;50.856;6.076;2023-06-22T15:35:22;19.50;99.90
37594;DHT22;23441;50.856;6.076;2023-06-22T15:37:48;19.40;99.90
37594;DHT22;23441;50.856;6.076;2023-06-22T15:40:14;19.50;99.90
37594;DHT22;23441;50.856;6.076;2023-06-22T15:42:39;19.50;99.90
37594;DHT22;23441;50.856;6.076;2023-06-22T15:45:05;19.50;99.90
37594;DHT22;23441;50.856;6.076;2023-06-22T15:47:31;19.50;99.90
37594;DHT22;23441;50.856;6.076;2023-06-22T15:49:57;19.40;99.90